Time;durP1;ratioP1;P1;durP2;ratioP2;P2;SDS_P1;SDS_P2;PMS_P1;PMS_P2;Temp;Humidity;BMP_temperature;BMP_pressure;BME280_temperature;BME280_humidity;BME280_pressure;Samples;Min_cycle;Max_cycle;Signal;HPM_P1;HPM_P2
2023/10/01 00:00:35;;;;;;;16.10;9.98;;;;;;;15.88;65.15;98879.63;5037645;28;20051;-70
2023/10/01 00:03:02;;;;;;;20.63;12.07;;;;;;;15.80;65.31;98883.09;5040107;28;20049;-71
2023/10/01 00:05:27;;;;;;;16.40;11.82;;;;;;;15.75;65.65;98887.28;5027645;28;20039;-70
2023/10/01 00:07:53;;;;;;;15.23;10.85;;;;;;;15.70;65.48;98877.00;5038635;28;20056;-72
2023/10/01 00:10:20;;;;;;;23.33;12.40;;;;;;;15.64;66.38;98882.19;5036382;28;20052;-70
2023/10/01 00:12:48;;;;;;;14.43;9.68;;;;;;;15.63;66.22;98885.88;5036892;28;20060;-68
2023/10/01 00:15:16;;;;;;;18.00;11.23;;;;;;;15.57;66.33;98877.47;5019154;28;20047;-70
2023/10/01 00:17:46;;;;;;;23.73;13.60;;;;;;;15.58;66.52;98880.97;5036624;28;20043;-71
2023/10/01 00:22:50;;;;;;;19.27;11.82;;;;;;;15.53;66.58;98867.16;5013023;28;20045;-70
2023/10/01 00:25:17;;;;;;;28.38;11.02;;;;;;;15.67;65.63;98866.59;4996804;28;20052;-71
2023/10/01 00:27:42;;;;;;;13.07;9.90;;;;;;;15.71;65.24;98877.84;5013101;28;20412;-69
2023/10/01 00:30:09;;;;;;;17.08;10.95;;;;;;;15.67;65.39;98855.84;5014540;28;20056;-71
2023/10/01 00:32:36;;;;;;;18.83;11.73;;;;;;;15.65;65.83;98878.50;5025880;28;20071;-68
2023/10/01 00:35:05;;;;;;;16.85;10.73;;;;;;;15.60;65.46;98860.16;5016240;28;20044;-73
2023/10/01 00:37:32;;;;;;;16.05;10.88;;;;;;;15.48;66.17;98859.56;5034287;28;20060;-72
2023/10/01 00:39:59;;;;;;;19.38;11.40;;;;;;;15.39;66.69;98863.22;4993795;28;20049;-72
2023/10/01 00:42:25;;;;;;;16.38;10.63;;;;;;;15.34;67.07;98844.06;5032694;28;20075;-72
2023/10/01 00:44:50;;;;;;;16.63;10.63;;;;;;;15.31;67.24;98849.75;4996509;28;20463;-73
2023/10/01 00:47:16;;;;;;;17.50;10.80;;;;;;;15.31;66.85;98876.59;4995706;28;20049;-71
2023/10/01 00:49:46;;;;;;;16.70;11.00;;;;;;;15.26;67.42;98863.63;4996490;28;20064;-70
2023/10/01 00:52:13;;;;;;;16.17;11.52;;;;;;;15.20;67.54;98847.34;5013105;28;20049;-72
2023/10/01 00:54:38;;;;;;;15.52;9.77;;;;;;;15.21;67.55;98859.75;5014315;28;20040;-72
2023/10/01 00:57:03;;;;;;;16.23;10.85;;;;;;;15.22;67.32;98846.19;4995555;28;20036;-71
2023/10/01 00:59:32;;;;;;;20.40;11.98;;;;;;;15.18;67.39;98843.97;5000274;28;20416;-71
2023/10/01 01:01:58;;;;;;;17.15;10.38;;;;;;;15.19;66.78;98840.28;5024117;28;20560;-72
2023/10/01 01:04:23;;;;;;;14.52;9.95;;;;;;;15.18;67.12;98833.22;5017617;28;20040;-70
2023/10/01 01:06:50;;;;;;;18.50;10.98;;;;;;;15.13;67.27;98835.53;5031846;28;20041;-68
2023/10/01 01:09:16;;;;;;;18.20;11.10;;;;;;;15.03;68.40;98829.41;5037412;28;20036;-71
2023/10/01 01:11:46;;;;;;;15.45;10.30;;;;;;;15.04;68.00;98836.47;5019764;28;20056;-70
2023/10/01 01:14:11;;;;;;;14.80;10.82;;;;;;;14.96;68.92;98845.31;5037634;28;20044;-70
2023/10/01 01:16:36;;;;;;;14.80;10.27;;;;;;;14.94;68.55;98847.31;5037540;28;20040;-71
2023/10/01 01:19:03;;;;;;;14.52;9.82;;;;;;;14.90;68.72;98841.41;5019506;28;20052;-70
2023/10/01 01:21:29;;;;;;;12.75;9.75;;;;;;;14.90;68.50;98845.94;5003073;28;20059;-71
2023/10/01 01:23:54;;;;;;;20.17;11.57;;;;;;;14.87;68.77;98840.91;5037509;28;20049;-72
2023/10/01 01:26:21;;;;;;;19.25;10.30;;;;;;;14.87;68.91;98840.91;5019030;28;20036;-71
2023/10/01 01:28:48;;;;;;;15.02;9.43;;;;;;;15.06;67.98;98842.53;5012187;28;20055;-71
2023/10/01 01:31:16;;;;;;;17.17;9.77;;;;;;;14.95;68.34;98834.75;5011920;28;20426;-69
2023/10/01 01:33:44;;;;;;;17.42;10.88;;;;;;;14.97;67.83;98835.44;5018925;28;20052;-69
2023/10/01 01:36:12;;;;;;;19.00;11.02;;;;;;;14.89;68.84;98844.28;5015479;28;20509;-68
2023/10/01 01:38:54;;;;;;;14.80;9.75;;;;;;;14.88;68.33;98838.06;5015783;28;20044;-69
2023/10/01 01:41:19;;;;;;;19.17;10.90;;;;;;;14.82;68.75;98827.94;5012473;28;20070;-69
2023/10/01 01:43:48;;;;;;;15.57;10.90;;;;;;;14.78;69.10;98829.28;4995876;28;20049;-70
2023/10/01 01:46:13;;;;;;;18.92;10.10;;;;;;;14.74;69.40;98835.94;5011449;28;20048;-68
2023/10/01 01:48:40;;;;;;;16.38;10.93;;;;;;;14.70;69.53;98833.69;5019563;28;20036;-69
2023/10/01 01:51:06;;;;;;;15.93;11.18;;;;;;;14.72;69.19;98848.66;5036552;28;20051;-68
2023/10/01 01:53:35;;;;;;;18.08;9.50;;;;;;;14.78;68.67;98831.09;5008293;28;20052;-70
2023/10/01 01:56:16;;;;;;;15.45;10.82;;;;;;;14.72;69.32;98823.66;5037019;28;20054;-72
2023/10/01 01:58:43;;;;;;;15.90;10.73;;;;;;;14.72;68.77;98837.09;5019257;28;20511;-69
2023/10/01 02:03:39;;;;;;;26.35;12.18;;;;;;;14.62;69.45;98820.22;5018613;28;20059;-69
2023/10/01 02:06:06;;;;;;;16.60;11.60;;;;;;;14.59;69.24;98816.00;4999985;28;20052;-70
2023/10/01 02:08:53;;;;;;;20.85;11.20;;;;;;;14.52;69.62;98815.81;5019833;28;20044;-70
2023/10/01 02:11:20;;;;;;;15.88;11.07;;;;;;;14.49;69.41;98812.56;5037149;28;20036;-69
2023/10/01 02:13:50;;;;;;;17.60;11.05;;;;;;;14.42;70.37;98809.69;5038927;28;20039;-70
2023/10/01 02:16:19;;;;;;;18.27;11.13;;;;;;;14.41;70.21;98809.84;5021131;28;20491;-69
2023/10/01 02:18:56;;;;;;;18.20;11.45;;;;;;;14.37;70.45;98816.47;5018976;28;20736;-71
2023/10/01 02:21:47;;;;;;;14.98;11.05;;;;;;;14.37;70.38;98811.94;5018526;28;20057;-71
2023/10/01 02:24:19;;;;;;;21.33;12.15;;;;;;;14.34;70.11;98800.66;5035102;28;20048;-70
2023/10/01 02:26:46;;;;;;;15.50;10.35;;;;;;;14.40;69.72;98816.19;5035932;28;20037;-71
2023/10/01 02:29:13;;;;;;;18.10;10.95;;;;;;;14.29;70.53;98797.63;5017328;28;20045;-69
2023/10/01 02:31:39;;;;;;;18.63;11.30;;;;;;;14.30;70.33;98807.34;5014851;28;20068;-66
2023/10/01 02:34:10;;;;;;;16.58;10.57;;;;;;;14.30;70.47;98810.88;5018012;28;20049;-66
2023/10/01 02:36:36;;;;;;;17.30;10.98;;;;;;;14.33;70.14;98799.00;5040351;28;20051;-71
2023/10/01 02:39:11;;;;;;;20.63;11.13;;;;;;;14.30;70.75;98797.47;5014525;28;20056;-68
2023/10/01 02:41:40;;;;;;;18.63;10.63;;;;;;;14.30;70.59;98804.69;4999097;28;20056;-74
2023/10/01 02:44:10;;;;;;;17.20;10.18;;;;;;;14.32;70.86;98766.00;5025854;28;20036;-73
2023/10/01 02:46:37;;;;;;;20.58;11.07;;;;;;;14.31;70.89;98817.09;5028696;28;20052;-73
2023/10/01 02:49:04;;;;;;;14.88;10.25;;;;;;;14.32;70.82;98787.44;5016754;28;20040;-71
2023/10/01 02:51:38;;;;;;;16.25;10.52;;;;;;;14.30;70.66;98788.59;5017485;28;20048;-72
2023/10/01 02:54:09;;;;;;;13.48;10.45;;;;;;;14.34;71.36;98789.94;5018415;28;20399;-71
2023/10/01 02:56:52;;;;;;;21.52;10.80;;;;;;;14.37;70.64;98811.09;4996923;28;20490;-70
2023/10/01 02:59:19;;;;;;;16.20;11.10;;;;;;;14.35;71.11;98802.34;5017605;28;20040;-72
2023/10/01 03:01:48;;;;;;;13.48;9.90;;;;;;;14.36;70.57;98793.31;5016353;28;20494;-71
2023/10/01 03:04:17;;;;;;;16.90;10.88;;;;;;;14.35;70.53;98811.25;5017541;28;20410;-71
2023/10/01 03:06:56;;;;;;;13.15;10.48;;;;;;;14.35;70.43;98781.75;5017752;28;20529;-74
2023/10/01 03:09:32;;;;;;;16.80;10.60;;;;;;;14.34;70.51;98811.41;5015634;28;20051;-73
2023/10/01 03:17:56;;;;;;;14.57;9.88;;;;;;;14.30;70.54;98778.72;4992904;28;20056;-73
2023/10/01 03:23:24;;;;;;;18.27;10.80;;;;;;;14.31;69.77;98768.81;4992538;28;20053;-71
2023/10/01 03:25:59;;;;;;;21.80;10.13;;;;;;;14.31;70.16;98801.00;4993936;28;20049;-72
2023/10/01 03:28:34;;;;;;;19.80;10.65;;;;;;;14.33;70.17;98766.84;4976711;28;20411;-71
2023/10/01 03:31:06;;;;;;;16.95;9.93;;;;;;;14.35;69.86;98780.91;4993827;28;20121;-71
2023/10/01 03:33:40;;;;;;;15.85;10.73;;;;;;;14.45;69.78;98757.56;4990379;28;20049;-72
2023/10/01 03:36:09;;;;;;;16.15;10.35;;;;;;;14.36;70.36;98755.78;4972996;28;20064;-73
2023/10/01 03:38:43;;;;;;;16.50;10.60;;;;;;;14.38;70.18;98716.25;4993941;28;20049;-73
2023/10/01 03:41:20;;;;;;;23.07;11.97;;;;;;;14.31;70.14;98750.91;4988654;28;20049;-70
2023/10/01 03:43:47;;;;;;;18.95;11.50;;;;;;;14.26;70.63;98744.31;4957396;28;20058;-72
2023/10/01 03:54:06;;;;;;;16.55;10.70;;;;;;;14.41;70.51;98774.97;5034227;28;20248;-72
2023/10/01 03:56:36;;;;;;;19.30;11.63;;;;;;;14.39;70.69;98760.84;5041448;28;20035;-72
2023/10/01 03:59:02;;;;;;;19.25;11.50;;;;;;;14.40;70.32;98757.19;5068897;28;20039;-72
2023/10/01 04:01:33;;;;;;;18.42;10.93;;;;;;;14.41;70.19;98770.44;5063591;28;20048;-74
2023/10/01 04:04:01;;;;;;;19.67;11.18;;;;;;;14.55;69.44;98750.28;5057843;28;20067;-75
2023/10/01 04:06:29;;;;;;;17.92;11.63;;;;;;;14.52;70.02;98772.03;4995816;28;20055;-72
2023/10/01 04:08:55;;;;;;;16.90;11.02;;;;;;;14.59;69.74;98740.91;5057009;28;20067;-72
2023/10/01 04:11:41;;;;;;;20.63;11.32;;;;;;;14.67;69.16;98754.38;5054851;28;20491;-72
2023/10/01 04:14:10;;;;;;;15.63;11.00;;;;;;;14.70;69.10;98763.94;5054933;28;20047;-74
2023/10/01 04:16:36;;;;;;;17.67;10.18;;;;;;;14.80;68.20;98753.94;5037128;28;20494;-74
2023/10/01 04:19:01;;;;;;;19.98;11.05;;;;;;;14.77;68.52;98763.19;5039249;28;20051;-74
2023/10/01 04:21:28;;;;;;;17.30;11.38;;;;;;;14.79;68.85;98758.47;5016904;28;20051;-72
2023/10/01 04:23:54;;;;;;;17.63;10.65;;;;;;;14.92;68.05;98751.84;5017143;28;20514;-72
2023/10/01 04:26:20;;;;;;;20.58;11.48;;;;;;;15.00;68.12;98813.66;5000296;28;20060;-70
2023/10/01 04:28:54;;;;;;;16.02;10.70;;;;;;;15.13;67.41;98752.28;5016543;28;20049;-70
2023/10/01 04:31:42;;;;;;;17.55;11.32;;;;;;;15.22;67.00;98754.03;5016814;28;20400;-71
2023/10/01 04:34:11;;;;;;;15.73;10.80;;;;;;;15.43;66.29;98762.53;5038427;28;20044;-73
2023/10/01 04:36:38;;;;;;;14.60;10.60;;;;;;;15.66;65.54;98773.56;5021307;28;20041;-73
2023/10/01 04:39:04;;;;;;;20.77;11.68;;;;;;;15.87;65.11;98754.28;5027902;28;20063;-72
2023/10/01 04:41:29;;;;;;;15.63;10.10;;;;;;;16.04;64.08;98756.00;5024056;28;20055;-72
2023/10/01 04:44:37;;;;;;;18.63;10.85;;;;;;;16.25;63.28;98750.16;5021437;28;20072;-72
2023/10/01 04:46:46;;;;;;;16.73;10.30;;;;;;;16.45;63.12;98764.13;5008062;28;20064;-74
2023/10/01 04:49:27;;;;;;;19.30;11.15;;;;;;;16.54;61.88;98747.78;5008270;28;20055;-72
2023/10/01 04:51:58;;;;;;;14.95;10.63;;;;;;;16.59;61.40;98750.81;5004033;28;20616;-73
2023/10/01 04:54:25;;;;;;;17.90;11.18;;;;;;;16.53;61.69;98756.88;5019633;28;20052;-72
2023/10/01 04:56:52;;;;;;;17.60;10.70;;;;;;;16.44;61.70;98755.19;5020387;28;20056;-72
2023/10/01 04:59:20;;;;;;;18.40;11.25;;;;;;;16.42;61.75;98753.69;5047606;28;20040;-71
2023/10/01 05:01:47;;;;;;;21.67;10.88;;;;;;;16.42;61.90;98745.59;5031852;28;20044;-71
2023/10/01 05:04:14;;;;;;;19.55;9.85;;;;;;;16.41;61.90;98763.59;5068068;28;20055;-74
2023/10/01 05:06:59;;;;;;;16.23;10.63;;;;;;;16.30;61.91;98762.09;5039209;28;20052;-72
2023/10/01 05:09:29;;;;;;;19.15;11.07;;;;;;;16.11;62.76;98783.06;5055342;28;20075;-72
2023/10/01 05:11:58;;;;;;;17.95;11.23;;;;;;;15.93;63.38;98759.84;5043214;28;20048;-73
2023/10/01 05:14:23;;;;;;;15.57;10.98;;;;;;;15.79;64.58;98762.34;5044593;28;20060;-72
2023/10/01 05:16:49;;;;;;;22.20;11.98;;;;;;;15.70;64.80;98752.56;5055146;28;20036;-72
2023/10/01 05:19:16;;;;;;;15.52;10.65;;;;;;;15.62;65.89;98761.44;5044060;28;20064;-71
2023/10/01 05:21:47;;;;;;;19.88;11.63;;;;;;;15.57;66.37;98761.09;5066654;28;20040;-71
2023/10/01 05:24:41;;;;;;;24.30;12.35;;;;;;;15.54;67.25;98766.75;5064572;28;20056;-71
2023/10/01 05:27:18;;;;;;;18.95;12.40;;;;;;;15.50;67.90;98757.34;5036224;28;20044;-71
2023/10/01 05:29:45;;;;;;;15.68;11.55;;;;;;;15.46;68.83;98762.19;5073838;28;20056;-72
2023/10/01 05:32:18;;;;;;;16.17;11.95;;;;;;;15.44;69.34;98758.00;5056437;28;20047;-71
2023/10/01 05:34:46;;;;;;;16.30;11.30;;;;;;;15.35;70.26;98738.31;5003612;28;20066;-72
2023/10/01 05:37:16;;;;;;;24.83;12.32;;;;;;;15.27;70.80;98765.97;5051206;28;20040;-71
2023/10/01 05:40:00;;;;;;;15.88;10.77;;;;;;;15.21;71.64;98765.78;5003265;28;20052;-71
2023/10/01 05:42:28;;;;;;;17.92;11.40;;;;;;;15.13;71.08;98769.25;5035651;28;20652;-72
2023/10/01 05:44:59;;;;;;;17.25;11.50;;;;;;;15.08;72.30;98773.44;5037253;28;20048;-72
2023/10/01 05:47:41;;;;;;;18.52;11.45;;;;;;;14.99;72.52;98764.50;5018970;28;20052;-71
2023/10/01 05:50:12;;;;;;;19.58;12.38;;;;;;;14.96;73.45;98785.44;5052977;28;20048;-71
2023/10/01 05:52:40;;;;;;;19.77;12.57;;;;;;;14.88;73.80;98762.09;5039376;28;20035;-70
2023/10/01 05:55:12;;;;;;;16.90;12.57;;;;;;;14.87;75.09;98766.59;5023377;28;20052;-71
2023/10/01 05:57:38;;;;;;;18.23;12.65;;;;;;;14.80;77.15;98765.53;5057426;28;20047;-71
2023/10/01 06:00:16;;;;;;;21.48;13.48;;;;;;;14.71;77.84;98771.84;5057473;28;20062;-71
2023/10/01 06:02:41;;;;;;;15.70;12.15;;;;;;;14.75;77.35;98761.66;5038864;28;20040;-71
2023/10/01 06:07:55;;;;;;;21.08;12.57;;;;;;;14.77;78.26;98771.25;5055200;28;20044;-70
2023/10/01 06:10:28;;;;;;;17.35;12.02;;;;;;;14.77;79.21;98744.41;5021530;28;20158;-71
2023/10/01 06:12:56;;;;;;;21.45;13.48;;;;;;;14.75;80.61;98800.06;5005494;28;20058;-71
2023/10/01 06:15:25;;;;;;;21.65;13.43;;;;;;;14.72;80.74;98762.81;5038901;28;20047;-73
2023/10/01 06:17:50;;;;;;;25.55;14.07;;;;;;;14.73;80.77;98782.44;5050035;28;20049;-71
2023/10/01 06:20:26;;;;;;;19.83;12.90;;;;;;;14.68;80.96;98800.81;5032085;28;20043;-71
2023/10/01 06:22:56;;;;;;;16.25;11.85;;;;;;;14.65;81.05;98782.38;5027713;28;20407;-71
2023/10/01 06:25:37;;;;;;;18.90;12.35;;;;;;;14.55;81.57;98792.34;5031539;28;20063;-71
2023/10/01 06:28:10;;;;;;;19.23;12.80;;;;;;;14.46;82.35;98791.41;5056698;28;20043;-73
2023/10/01 06:30:40;;;;;;;17.38;12.32;;;;;;;14.44;83.25;98790.75;5021624;28;20055;-71
2023/10/01 06:33:24;;;;;;;20.65;12.95;;;;;;;14.40;83.14;98800.94;5055169;28;20051;-72
2023/10/01 06:36:15;;;;;;;15.05;11.88;;;;;;;14.43;83.60;98822.09;5038714;28;20048;-73
2023/10/01 06:38:44;;;;;;;18.80;11.70;;;;;;;14.36;84.51;98798.69;5021734;28;20043;-72
2023/10/01 06:41:13;;;;;;;16.88;11.23;;;;;;;14.27;84.87;98802.28;5055220;28;20036;-73
2023/10/01 06:43:49;;;;;;;18.10;12.25;;;;;;;14.22;87.04;98834.09;5020014;28;20051;-71
2023/10/01 06:46:16;;;;;;;16.58;12.43;;;;;;;14.20;87.23;98815.47;5004647;28;20044;-71
2023/10/01 06:48:42;;;;;;;17.80;13.25;;;;;;;14.22;87.94;98813.47;5020582;28;20055;-71
2023/10/01 06:51:07;;;;;;;15.45;10.52;;;;;;;14.26;88.32;98824.72;5019483;28;20041;-71
2023/10/01 06:53:48;;;;;;;18.02;12.23;;;;;;;14.27;88.66;98810.34;5034835;28;20412;-70
2023/10/01 06:56:17;;;;;;;15.65;11.05;;;;;;;14.36;89.27;98820.97;5019765;28;20051;-70
2023/10/01 07:01:35;;;;;;;;;;;;;;;14.64;89.20;98815.56;5055085;28;20071;-70
2023/10/01 07:04:06;;;;;;;17.92;11.23;;;;;;;14.44;87.91;98817.56;5015783;28;19940;-71
2023/10/01 07:06:34;;;;;;;14.65;10.25;;;;;;;14.31;88.35;98822.44;4965385;28;20064;-72
2023/10/01 07:09:00;;;;;;;15.85;10.93;;;;;;;14.31;89.09;98823.28;4997593;28;20049;-71
2023/10/01 07:11:28;;;;;;;15.77;10.65;;;;;;;14.24;88.44;98842.81;4998307;28;20045;-72
2023/10/01 07:13:55;;;;;;;15.50;10.20;;;;;;;14.22;89.88;98820.69;4997639;28;20048;-72
2023/10/01 07:16:35;;;;;;;14.50;9.77;;;;;;;14.21;90.41;98843.13;4997477;28;20052;-72
2023/10/01 07:19:11;;;;;;;19.35;10.07;;;;;;;14.17;90.90;98811.25;4996979;28;20049;-71
2023/10/01 07:21:45;;;;;;;13.23;9.65;;;;;;;14.18;91.49;98838.91;5016564;28;20045;-73
2023/10/01 07:24:11;;;;;;;12.07;10.00;;;;;;;14.15;92.20;98850.78;5013779;28;20049;-72
2023/10/01 07:26:41;;;;;;;15.30;10.05;;;;;;;14.09;92.61;98867.47;4987564;28;20043;-73
2023/10/01 07:29:07;;;;;;;12.15;9.38;;;;;;;14.13;92.48;98851.91;5054469;28;20047;-73
2023/10/01 07:31:36;;;;;;;16.75;9.98;;;;;;;14.14;92.69;98849.06;5055106;28;20036;-73
2023/10/01 07:34:12;;;;;;;13.13;9.23;;;;;;;14.20;92.94;98852.16;5020771;28;20043;-72
2023/10/01 07:36:44;;;;;;;11.65;9.07;;;;;;;14.24;94.21;98853.53;5019831;28;20044;-73
2023/10/01 07:39:12;;;;;;;13.15;8.55;;;;;;;14.24;93.78;98853.53;5020699;28;20072;-72
2023/10/01 07:41:39;;;;;;;12.93;9.25;;;;;;;14.26;93.65;98868.47;5055151;28;20048;-72
2023/10/01 07:44:08;;;;;;;13.10;9.32;;;;;;;14.27;93.42;98861.28;5053235;28;20047;-74
2023/10/01 07:46:36;;;;;;;12.70;8.25;;;;;;;14.30;93.27;98856.47;5053897;28;20066;-73
2023/10/01 07:49:05;;;;;;;13.70;8.95;;;;;;;14.33;93.66;98858.84;5020658;28;20449;-73
2023/10/01 07:51:36;;;;;;;11.98;8.00;;;;;;;14.29;93.83;98878.06;5036787;28;20040;-72
2023/10/01 07:54:44;;;;;;;13.32;9.30;;;;;;;14.26;93.91;98889.06;5053431;28;20050;-73
2023/10/01 07:56:51;;;;;;;11.45;7.43;;;;;;;14.24;93.92;98869.63;5046575;28;20060;-72
2023/10/01 07:59:34;;;;;;;12.43;7.80;;;;;;;14.17;94.04;98891.69;5054982;28;20070;-74
2023/10/01 08:04:50;;;;;;;16.10;7.93;;;;;;;14.06;92.63;98873.13;5060015;28;20044;-74
2023/10/01 08:07:18;;;;;;;13.63;7.57;;;;;;;14.05;92.98;98876.78;5068568;28;20059;-73
2023/10/01 08:09:51;;;;;;;15.52;6.97;;;;;;;14.03;92.75;98880.59;5049170;28;20047;-74
2023/10/01 08:15:15;;;;;;;11.52;7.00;;;;;;;14.33;94.22;98911.63;5036396;28;20632;-71
2023/10/01 08:17:43;;;;;;;12.18;8.10;;;;;;;14.55;94.18;98878.19;5054975;28;20051;-71
2023/10/01 08:20:21;;;;;;;14.23;7.45;;;;;;;14.80;92.63;98888.97;5020058;28;20051;-73
2023/10/01 08:25:32;;;;;;;10.57;7.25;;;;;;;15.29;90.21;98894.72;5037950;28;20052;-71
2023/10/01 08:30:43;;;;;;;11.38;7.43;;;;;;;15.55;87.54;98878.63;5055771;28;20047;-71
2023/10/01 08:33:22;;;;;;;14.02;7.57;;;;;;;15.68;85.96;98888.94;5037141;28;20048;-72
2023/10/01 08:35:56;;;;;;;14.88;7.32;;;;;;;15.80;85.01;98883.09;5036253;28;20048;-72
2023/10/01 08:38:29;;;;;;;10.32;5.85;;;;;;;15.90;83.69;98877.63;5018359;28;20513;-71
2023/10/01 08:41:00;;;;;;;10.40;6.25;;;;;;;15.89;82.62;98881.31;5035178;28;20434;-73
2023/10/01 08:43:30;;;;;;;10.80;6.85;;;;;;;15.97;82.29;98890.25;5034646;28;20048;-71
2023/10/01 08:46:00;;;;;;;11.45;6.63;;;;;;;15.96;81.50;98883.19;5032837;28;20521;-73
2023/10/01 08:48:35;;;;;;;12.32;6.65;;;;;;;16.02;81.20;98881.72;5034512;28;20051;-71
2023/10/01 08:51:08;;;;;;;11.48;6.65;;;;;;;16.07;80.29;98889.25;5032533;28;20056;-72
2023/10/01 08:53:36;;;;;;;9.45;5.35;;;;;;;16.09;79.65;98892.63;5033183;28;20495;-71
2023/10/01 08:56:04;;;;;;;9.82;5.57;;;;;;;16.16;78.42;98883.75;4999567;28;20045;-72
2023/10/01 08:58:48;;;;;;;10.88;5.50;;;;;;;16.30;78.04;98885.81;5015939;28;20056;-72
2023/10/01 09:01:14;;;;;;;7.63;5.60;;;;;;;16.59;76.89;98884.53;4999539;28;20049;-72
2023/10/01 09:03:47;;;;;;;10.18;6.22;;;;;;;16.84;75.29;98890.78;5034542;28;20048;-71
2023/10/01 09:06:58;;;;;;;13.88;6.30;;;;;;;17.30;73.29;98883.88;4999115;28;20059;-73
2023/10/01 09:09:19;;;;;;;10.30;5.80;;;;;;;18.09;70.22;98893.78;5029966;28;20546;-72
2023/10/01 09:11:49;;;;;;;9.85;5.68;;;;;;;19.10;68.37;98880.97;5012569;28;20052;-71
2023/10/01 09:14:19;;;;;;;8.68;5.13;;;;;;;19.85;63.49;98912.53;5037261;28;20051;-71
2023/10/01 09:16:49;;;;;;;9.98;5.20;;;;;;;20.68;60.38;98890.47;5043153;28;20056;-73
2023/10/01 09:19:31;;;;;;;9.85;4.70;;;;;;;21.58;57.16;98895.25;5038176;28;20066;-72
2023/10/01 09:22:07;;;;;;;10.35;4.72;;;;;;;23.01;54.11;98882.53;5038793;28;20059;-73
2023/10/01 09:24:39;;;;;;;8.80;4.57;;;;;;;23.52;48.84;98874.59;5056971;28;20047;-72
2023/10/01 09:29:57;;;;;;;9.85;4.60;;;;;;;23.29;48.46;98840.69;5057518;28;20044;-74
2023/10/01 09:32:50;;;;;;;11.17;5.13;;;;;;;23.16;48.65;98923.09;5057246;28;20040;-72
2023/10/01 09:35:30;;;;;;;10.75;5.28;;;;;;;22.33;49.43;98891.75;5039307;28;20290;-73
2023/10/01 09:38:12;;;;;;;12.43;5.20;;;;;;;22.53;50.39;98895.34;5039044;28;20379;-72
2023/10/01 09:40:41;;;;;;;8.98;4.57;;;;;;;22.91;49.18;98886.72;5039077;28;20495;-73
2023/10/01 09:43:18;;;;;;;9.82;4.95;;;;;;;23.28;48.75;98915.16;5057075;28;20058;-72
2023/10/01 09:45:46;;;;;;;11.15;4.70;;;;;;;23.53;46.93;98891.75;5022816;28;20044;-74
2023/10/01 09:48:28;;;;;;;8.70;4.63;;;;;;;23.67;45.69;98878.97;5022445;28;20040;-73
2023/10/01 09:51:15;;;;;;;8.35;4.15;;;;;;;24.16;44.57;98892.88;5057142;28;20241;-71
2023/10/01 09:53:47;;;;;;;9.07;4.68;;;;;;;23.68;44.35;98896.97;5056672;28;20044;-72
2023/10/01 09:56:14;;;;;;;9.50;4.30;;;;;;;23.92;44.33;98892.75;5057122;28;20040;-73
2023/10/01 09:58:46;;;;;;;7.18;4.88;;;;;;;24.31;43.74;98905.41;5038929;28;20368;-73
2023/10/01 10:01:17;;;;;;;17.85;5.43;;;;;;;24.95;42.14;98903.44;5056967;28;20491;-71
2023/10/01 10:03:44;;;;;;;7.18;3.53;;;;;;;25.87;40.25;98911.91;5042754;28;20375;-74
2023/10/01 10:06:10;;;;;;;10.57;5.07;;;;;;;26.59;38.54;98915.75;5022626;28;20047;-74
2023/10/01 10:08:37;;;;;;;8.50;3.97;;;;;;;26.49;38.02;98901.78;5019642;28;20047;-75
2023/10/01 10:11:08;;;;;;;7.88;4.47;;;;;;;25.77;38.51;98911.59;5018643;28;20048;-75
2023/10/01 10:13:38;;;;;;;10.05;4.38;;;;;;;24.95;40.66;98914.31;5037347;28;20036;-77
2023/10/01 10:19:13;;;;;;;7.88;3.92;;;;;;;23.71;41.68;98910.16;5032767;28;20492;-72
2023/10/01 10:24:31;;;;;;;8.55;4.50;;;;;;;22.43;44.04;98922.91;5053082;28;20036;-73
2023/10/01 10:27:09;;;;;;;8.00;4.90;;;;;;;22.20;44.71;98921.56;5033482;28;20870;-73
2023/10/01 10:29:47;;;;;;;9.02;4.03;;;;;;;21.95;44.55;98921.16;5026387;28;20044;-73
2023/10/01 10:32:17;;;;;;;8.02;3.83;;;;;;;21.54;45.99;98889.41;5034633;28;20490;-73
2023/10/01 10:35:04;;;;;;;7.22;3.85;;;;;;;21.43;46.71;98929.78;5034621;28;20040;-72
2023/10/01 10:37:44;;;;;;;6.85;3.90;;;;;;;20.91;47.67;98930.94;5035502;28;20047;-72
2023/10/01 10:43:02;;;;;;;9.23;4.03;;;;;;;20.48;48.38;98925.47;5034277;28;20048;-73
2023/10/01 10:45:45;;;;;;;7.53;3.50;;;;;;;20.27;48.77;98925.38;5037022;28;20048;-72
2023/10/01 10:48:13;;;;;;;11.68;3.65;;;;;;;20.00;48.70;98926.88;5054283;28;20044;-73
2023/10/01 10:50:56;;;;;;;11.82;3.95;;;;;;;19.90;49.40;98926.31;5034436;28;20047;-72
2023/10/01 10:53:29;;;;;;;9.20;4.20;;;;;;;19.64;49.84;98910.53;4994139;28;20049;-73
2023/10/01 10:56:10;;;;;;;7.57;4.15;;;;;;;19.47;50.64;98925.22;4998417;28;20060;-74
2023/10/01 10:58:53;;;;;;;8.25;4.15;;;;;;;19.29;51.54;98927.44;5018297;28;20059;-70
2023/10/01 11:01:19;;;;;;;7.35;4.22;;;;;;;19.04;51.50;98930.34;5058196;28;20051;-73
2023/10/01 11:03:59;;;;;;;9.20;5.13;;;;;;;18.97;51.74;98920.41;5020931;28;20048;-72
2023/10/01 11:06:39;;;;;;;11.80;4.47;;;;;;;18.92;51.52;98920.97;5038762;28;20048;-72
2023/10/01 11:09:22;;;;;;;6.70;4.25;;;;;;;18.93;52.12;98932.63;5021366;28;20049;-71
2023/10/01 11:11:47;;;;;;;9.55;4.35;;;;;;;18.84;52.17;98945.34;5056323;28;20040;-72
2023/10/01 11:14:16;;;;;;;10.55;4.15;;;;;;;18.96;52.48;98883.66;5056484;28;20051;-72
2023/10/01 11:16:44;;;;;;;8.63;3.85;;;;;;;19.19;52.11;98904.19;5026669;28;20420;-74
2023/10/01 11:19:16;;;;;;;5.78;3.45;;;;;;;19.44;51.91;98925.59;5016224;28;20071;-73
2023/10/01 11:21:59;;;;;;;7.93;4.00;;;;;;;19.58;51.64;98922.13;5016602;28;20060;-74
2023/10/01 11:24:31;;;;;;;9.90;4.20;;;;;;;19.68;50.90;98938.91;5054867;28;20047;-74
2023/10/01 11:27:43;;;;;;;8.02;3.97;;;;;;;19.75;50.15;98923.59;5021744;28;20032;-76
2023/10/01 11:30:12;;;;;;;7.45;3.95;;;;;;;19.50;49.98;98928.44;5056638;28;20059;-75
2023/10/01 11:33:01;;;;;;;12.55;4.78;;;;;;;19.36;50.52;98928.38;5043445;28;20036;-74
2023/10/01 11:35:35;;;;;;;10.95;4.65;;;;;;;19.26;50.95;98922.41;5043451;28;20063;-76
2023/10/01 11:38:19;;;;;;;8.35;4.63;;;;;;;19.13;51.67;98933.81;5056403;28;20035;-73
2023/10/01 11:43:42;;;;;;;10.93;4.72;;;;;;;18.84;52.56;98945.34;5048058;28;20051;-67
2023/10/01 11:46:23;;;;;;;7.75;4.00;;;;;;;18.79;52.14;98948.56;4984945;28;20044;-68
2023/10/01 11:49:04;;;;;;;9.02;3.95;;;;;;;18.75;52.26;98947.25;5012919;28;20048;-68
2023/10/01 11:51:45;;;;;;;5.90;3.47;;;;;;;18.81;52.44;98945.69;5040463;28;20044;-66
2023/10/01 11:54:15;;;;;;;8.48;3.63;;;;;;;18.87;52.41;98944.97;4999719;28;20044;-67
2023/10/01 11:56:43;;;;;;;7.05;3.58;;;;;;;18.91;51.83;98946.31;5015805;28;20079;-70
2023/10/01 11:59:17;;;;;;;6.45;4.00;;;;;;;18.95;51.49;98974.66;5020259;28;20041;-67
2023/10/01 12:01:47;;;;;;;;;;;;;;;19.20;50.77;98951.81;5014079;28;20377;-67
2023/10/01 12:04:21;;;;;;;5.70;3.45;;;;;;;18.93;50.85;98970.44;5036550;28;19922;-68
2023/10/01 12:06:48;;;;;;;9.90;3.70;;;;;;;18.80;50.68;98973.72;5050635;28;20054;-68
2023/10/01 12:09:13;;;;;;;12.82;4.40;;;;;;;18.67;50.37;98966.19;5030735;28;20032;-72
2023/10/01 12:11:39;;;;;;;9.32;3.90;;;;;;;18.55;50.50;98969.44;5048168;28;20040;-69
2023/10/01 12:14:05;;;;;;;7.97;4.35;;;;;;;18.44;50.53;98965.28;5035244;28;20036;-71
2023/10/01 12:16:39;;;;;;;8.45;3.83;;;;;;;18.40;50.75;98958.53;5039892;28;20052;-67
2023/10/01 12:19:24;;;;;;;13.27;3.83;;;;;;;18.32;50.47;98961.28;5032376;28;20052;-68
2023/10/01 12:22:05;;;;;;;9.35;3.90;;;;;;;18.36;50.71;98960.78;5035713;28;20040;-71
2023/10/01 12:24:39;;;;;;;10.88;4.53;;;;;;;18.43;50.81;98956.34;5037155;28;20044;-69
2023/10/01 12:27:08;;;;;;;8.45;3.97;;;;;;;18.44;50.64;98966.13;5047219;28;20044;-71
2023/10/01 12:29:42;;;;;;;7.80;3.42;;;;;;;18.41;50.40;98976.41;5015299;28;20075;-69
2023/10/01 12:32:12;;;;;;;6.20;3.20;;;;;;;18.42;50.59;98946.56;5003079;28;20537;-72
2023/10/01 12:34:38;;;;;;;10.57;4.22;;;;;;;18.41;50.63;98971.03;5023531;28;20043;-71
2023/10/01 12:37:29;;;;;;;8.93;3.72;;;;;;;18.35;50.22;98950.16;5051068;28;20044;-71